Time;durP1;ratioP1;P1;durP2;ratioP2;P2;SDS_P1;SDS_P2;PMS_P1;PMS_P2;Temp;Humidity;BMP_temperature;BMP_pressure;BME280_temperature;BME280_humidity;BME280_pressure;Samples;Min_cycle;Max_cycle;Signal;HPM_P1;HPM_P2
2023/09/04 00:01:03;;;;;;;1.20;0.70;;;16.60;68.80;;;;;;5103667;28;20040;-68
2023/09/04 00:03:29;;;;;;;0.73;0.60;;;16.60;68.80;;;;;;5093710;28;20483;-68
2023/09/04 00:05:55;;;;;;;0.70;0.50;;;16.60;68.80;;;;;;5092463;28;20106;-68
2023/09/04 00:08:21;;;;;;;0.63;0.52;;;16.60;68.70;;;;;;5088416;28;20036;-69
2023/09/04 00:10:47;;;;;;;1.35;0.60;;;16.50;68.70;;;;;;5092045;28;20093;-69
2023/09/04 00:13:13;;;;;;;1.02;0.60;;;16.50;68.80;;;;;;5094515;28;20047;-69
2023/09/04 00:15:39;;;;;;;0.73;0.50;;;16.50;68.80;;;;;;5092917;28;20044;-69
2023/09/04 00:18:07;;;;;;;1.20;0.75;;;16.50;68.70;;;;;;5102673;28;20039;-69
2023/09/04 00:20:32;;;;;;;1.30;0.80;;;16.40;68.70;;;;;;5112662;28;20042;-69
2023/09/04 00:22:58;;;;;;;1.00;0.60;;;16.40;68.80;;;;;;5100930;28;20032;-69
2023/09/04 00:25:24;;;;;;;2.05;0.50;;;16.40;68.90;;;;;;5093327;28;20479;-69
2023/09/04 00:27:49;;;;;;;1.15;0.90;;;16.40;69.00;;;;;;5101846;28;20044;-69
2023/09/04 00:30:17;;;;;;;0.60;0.60;;;16.30;69.00;;;;;;5106178;28;20032;-69
2023/09/04 00:32:43;;;;;;;0.93;0.55;;;16.30;68.90;;;;;;5106926;28;20050;-69
2023/09/04 00:35:12;;;;;;;0.60;0.47;;;16.30;68.80;;;;;;5092905;28;20048;-69
2023/09/04 00:37:38;;;;;;;0.45;0.45;;;16.30;68.80;;;;;;5092588;28;20074;-69
2023/09/04 00:40:06;;;;;;;0.40;0.40;;;16.20;68.70;;;;;;5073902;28;20527;-69
2023/09/04 00:42:33;;;;;;;0.50;0.38;;;16.20;68.70;;;;;;5098840;28;20086;-69
2023/09/04 00:45:00;;;;;;;0.80;0.70;;;16.20;68.60;;;;;;5102146;28;20043;-69
2023/09/04 00:47:28;;;;;;;0.30;0.30;;;16.20;68.30;;;;;;5110640;28;20549;-69
2023/09/04 00:49:54;;;;;;;0.73;0.65;;;16.10;67.90;;;;;;5112275;28;20483;-69
2023/09/04 00:52:23;;;;;;;1.13;0.60;;;16.10;68.10;;;;;;5112742;28;20429;-69
2023/09/04 00:54:49;;;;;;;0.52;0.40;;;16.10;68.20;;;;;;5098126;28;20131;-69
2023/09/04 00:57:15;;;;;;;0.50;0.45;;;16.00;68.30;;;;;;5090182;28;20119;-69
2023/09/04 00:59:41;;;;;;;1.08;0.65;;;16.00;68.50;;;;;;5094126;28;20043;-69
2023/09/04 01:02:07;;;;;;;0.70;0.57;;;16.00;68.60;;;;;;5111911;28;20088;-69
2023/09/04 01:04:33;;;;;;;0.95;0.50;;;15.90;68.60;;;;;;5095447;28;20121;-69
2023/09/04 01:06:59;;;;;;;0.95;0.50;;;15.90;68.80;;;;;;5099426;28;20047;-69
2023/09/04 01:09:26;;;;;;;0.47;0.47;;;15.90;68.90;;;;;;5094951;28;20092;-69
2023/09/04 01:12:04;;;;;;;1.15;0.60;;;15.90;69.10;;;;;;5109369;28;20093;-69
2023/09/04 01:14:31;;;;;;;1.55;0.50;;;15.90;69.20;;;;;;5093349;28;20131;-69
2023/09/04 01:16:58;;;;;;;2.05;0.90;;;15.90;69.70;;;;;;5110290;28;20473;-69
2023/09/04 01:19:24;;;;;;;0.40;0.40;;;15.80;69.30;;;;;;5112126;28;20483;-69
2023/09/04 01:21:50;;;;;;;1.00;0.50;;;15.80;69.40;;;;;;5095674;28;20052;-69
2023/09/04 01:24:16;;;;;;;1.27;0.70;;;15.80;69.40;;;;;;5096294;28;20040;-69
2023/09/04 01:26:51;;;;;;;1.75;1.20;;;15.80;69.50;;;;;;5091727;28;20036;-69
2023/09/04 01:29:23;;;;;;;1.20;0.80;;;15.80;69.40;;;;;;5100467;28;20036;-68
2023/09/04 01:32:10;;;;;;;1.40;0.60;;;15.70;69.50;;;;;;5091524;28;20394;-69
2023/09/04 01:34:48;;;;;;;0.55;0.47;;;15.70;69.40;;;;;;5101575;28;20042;-69
2023/09/04 01:37:14;;;;;;;0.50;0.47;;;15.70;69.50;;;;;;5091684;28;20076;-69
2023/09/04 01:39:40;;;;;;;1.17;0.50;;;15.70;69.50;;;;;;5091727;28;20036;-69
2023/09/04 01:42:06;;;;;;;0.60;0.40;;;15.70;69.60;;;;;;5094281;28;20042;-69
2023/09/04 01:44:33;;;;;;;0.60;0.60;;;15.70;69.60;;;;;;5104272;28;20383;-69
2023/09/04 01:46:59;;;;;;;0.60;0.50;;;15.70;69.50;;;;;;5076463;28;20433;-69
2023/09/04 01:49:25;;;;;;;2.25;0.50;;;15.60;69.40;;;;;;5091593;28;20044;-69
2023/09/04 01:51:52;;;;;;;1.17;0.85;;;15.60;69.30;;;;;;5098202;28;20084;-69
2023/09/04 01:54:18;;;;;;;1.27;0.68;;;15.60;69.30;;;;;;5106172;28;20060;-69
2023/09/04 01:56:43;;;;;;;0.52;0.52;;;15.60;69.30;;;;;;5093496;28;20062;-69
2023/09/04 01:59:09;;;;;;;1.30;0.60;;;15.60;69.20;;;;;;5079526;28;20044;-69
2023/09/04 02:01:35;;;;;;;0.90;0.70;;;15.60;69.30;;;;;;5088503;28;20059;-69
2023/09/04 02:04:01;;;;;;;0.70;0.60;;;15.50;69.20;;;;;;5092057;28;20047;-69
2023/09/04 02:06:28;;;;;;;0.77;0.60;;;15.50;69.20;;;;;;5111510;28;20043;-69
2023/09/04 02:08:54;;;;;;;1.20;0.63;;;15.50;69.20;;;;;;5104707;28;20044;-69
2023/09/04 02:11:20;;;;;;;0.95;0.70;;;15.50;69.20;;;;;;5092476;28;20047;-69
2023/09/04 02:13:45;;;;;;;1.02;0.63;;;15.50;69.20;;;;;;5096541;28;20608;-69
2023/09/04 02:16:12;;;;;;;1.00;0.75;;;15.40;69.20;;;;;;5093306;28;20682;-69
2023/09/04 02:18:38;;;;;;;0.55;0.43;;;15.40;69.10;;;;;;5094757;28;20044;-69
2023/09/04 02:21:05;;;;;;;1.05;0.77;;;15.40;69.10;;;;;;5078419;28;20505;-69
2023/09/04 02:23:31;;;;;;;0.88;0.65;;;15.40;69.20;;;;;;5101740;28;20068;-69
2023/09/04 02:25:56;;;;;;;0.88;0.60;;;15.40;69.20;;;;;;5113002;28;20518;-69
2023/09/04 02:28:22;;;;;;;1.00;0.85;;;15.40;69.30;;;;;;5094795;28;20040;-71
2023/09/04 02:30:48;;;;;;;1.92;0.60;;;15.30;69.40;;;;;;5103564;28;20039;-71
2023/09/04 02:33:13;;;;;;;1.42;0.80;;;15.40;69.40;;;;;;5109536;28;20044;-71
2023/09/04 02:35:39;;;;;;;2.28;0.90;;;15.30;69.30;;;;;;5108228;28;20044;-71
2023/09/04 02:38:05;;;;;;;0.85;0.50;;;15.30;69.20;;;;;;5094665;28;20491;-71
2023/09/04 02:40:30;;;;;;;1.17;0.70;;;15.30;69.00;;;;;;5098324;28;20031;-71
2023/09/04 02:42:56;;;;;;;1.35;0.40;;;15.30;69.00;;;;;;5079158;28;20047;-72
2023/09/04 02:45:22;;;;;;;0.60;0.60;;;15.30;69.20;;;;;;5095025;28;20115;-72
2023/09/04 02:47:48;;;;;;;1.58;0.60;;;15.20;69.00;;;;;;5114992;28;20035;-72
2023/09/04 02:50:13;;;;;;;2.13;0.73;;;15.20;69.00;;;;;;5114686;28;20039;-72
2023/09/04 02:52:39;;;;;;;1.15;0.85;;;15.20;69.10;;;;;;5114920;28;20054;-72
2023/09/04 02:55:06;;;;;;;1.67;0.80;;;15.20;69.10;;;;;;5095378;28;20059;-72
2023/09/04 02:57:32;;;;;;;1.58;1.00;;;15.20;69.10;;;;;;5113588;28;20085;-72
2023/09/04 02:59:59;;;;;;;0.98;0.70;;;15.10;69.10;;;;;;5109720;28;20068;-72
2023/09/04 03:02:25;;;;;;;0.95;0.70;;;15.10;69.20;;;;;;5091084;28;20454;-72
2023/09/04 03:04:55;;;;;;;1.00;0.80;;;15.10;69.60;;;;;;5105605;28;20042;-72
2023/09/04 03:07:27;;;;;;;1.00;0.70;;;15.10;69.20;;;;;;5098068;28;20114;-72
2023/09/04 03:09:57;;;;;;;0.60;0.60;;;15.10;69.10;;;;;;5108464;28;20439;-72
2023/09/04 03:12:29;;;;;;;1.45;0.77;;;15.10;68.90;;;;;;5112490;28;20036;-72
2023/09/04 03:15:04;;;;;;;0.95;0.50;;;15.10;68.80;;;;;;5113770;28;20093;-72
2023/09/04 03:17:30;;;;;;;;;;;15.00;68.70;;;;;;5096096;28;20127;-72
2023/09/04 03:19:57;;;;;;;1.85;0.63;;;15.00;68.80;;;;;;5093595;28;19963;-72
2023/09/04 03:22:24;;;;;;;1.38;0.70;;;15.00;68.80;;;;;;5094175;28;20468;-72
2023/09/04 03:24:51;;;;;;;1.08;0.55;;;15.00;68.80;;;;;;5095069;28;20085;-72
2023/09/04 03:27:17;;;;;;;0.90;0.70;;;15.00;68.80;;;;;;5109309;28;20391;-72
2023/09/04 03:29:43;;;;;;;0.90;0.50;;;14.90;68.90;;;;;;5093685;28;20036;-72
2023/09/04 03:32:09;;;;;;;1.27;0.52;;;14.90;68.90;;;;;;5111330;28;20039;-72
2023/09/04 03:34:35;;;;;;;1.20;0.57;;;14.90;68.90;;;;;;5113841;28;20145;-72
2023/09/04 03:37:01;;;;;;;0.70;0.50;;;14.90;68.90;;;;;;5079566;28;20097;-72
2023/09/04 03:39:27;;;;;;;1.45;0.60;;;14.90;68.90;;;;;;5093514;28;20181;-72
2023/09/04 03:41:52;;;;;;;1.60;0.47;;;14.80;68.80;;;;;;5093607;28;20051;-72
2023/09/04 03:44:18;;;;;;;1.13;0.50;;;14.80;68.70;;;;;;5095677;28;20160;-72
2023/09/04 03:46:44;;;;;;;0.55;0.55;;;14.80;68.80;;;;;;5095043;28;20047;-72
2023/09/04 03:49:10;;;;;;;0.82;0.50;;;14.80;68.80;;;;;;5106985;28;20111;-72
2023/09/04 03:51:35;;;;;;;0.63;0.50;;;14.80;68.80;;;;;;5093445;28;20036;-72
2023/09/04 03:54:02;;;;;;;0.50;0.50;;;14.80;68.90;;;;;;5092779;28;20100;-72
2023/09/04 03:56:29;;;;;;;1.88;0.85;;;14.80;68.90;;;;;;5077458;28;20047;-72
2023/09/04 03:58:55;;;;;;;0.60;0.60;;;14.80;69.00;;;;;;5094484;28;20036;-72
2023/09/04 04:01:24;;;;;;;0.70;0.50;;;14.80;69.10;;;;;;5079418;28;20524;-72
2023/09/04 04:03:51;;;;;;;1.52;0.70;;;14.70;69.10;;;;;;5104986;28;20101;-72
2023/09/04 04:06:17;;;;;;;0.70;0.60;;;14.70;69.10;;;;;;5108438;28;20047;-72
2023/09/04 04:08:45;;;;;;;0.60;0.60;;;14.70;69.10;;;;;;5109383;28;20043;-72
2023/09/04 04:11:10;;;;;;;0.63;0.50;;;14.70;69.00;;;;;;5093034;28;20488;-72
2023/09/04 04:13:36;;;;;;;0.93;0.65;;;14.70;69.10;;;;;;5094168;28;20036;-72
2023/09/04 04:16:02;;;;;;;1.38;0.70;;;14.70;69.30;;;;;;5112449;28;20543;-72
2023/09/04 04:18:30;;;;;;;0.77;0.60;;;14.60;69.20;;;;;;5113211;28;20093;-72
2023/09/04 04:20:56;;;;;;;1.20;0.70;;;14.60;69.30;;;;;;5113262;28;20099;-72
2023/09/04 04:23:23;;;;;;;2.80;0.68;;;14.60;69.40;;;;;;5096236;28;20532;-72
2023/09/04 04:25:49;;;;;;;0.80;0.60;;;14.60;69.40;;;;;;5094274;28;20036;-72
2023/09/04 04:28:22;;;;;;;0.60;0.60;;;14.60;69.30;;;;;;5104798;28;20040;-72
2023/09/04 04:30:48;;;;;;;1.08;0.80;;;14.60;69.20;;;;;;5114319;28;20040;-72
2023/09/04 04:33:13;;;;;;;0.98;0.60;;;14.60;69.10;;;;;;5099696;28;20510;-72
2023/09/04 04:35:40;;;;;;;0.70;0.40;;;14.50;69.00;;;;;;5108775;28;20043;-72
2023/09/04 04:38:06;;;;;;;0.80;0.60;;;14.50;69.10;;;;;;5112711;28;20216;-72
2023/09/04 04:40:33;;;;;;;0.88;0.50;;;14.50;68.90;;;;;;5099595;28;20075;-72
2023/09/04 04:42:59;;;;;;;2.10;0.60;;;14.50;68.90;;;;;;5104397;28;20044;-72
2023/09/04 04:45:25;;;;;;;1.20;0.90;;;14.50;68.90;;;;;;5076594;28;20046;-72
2023/09/04 04:47:51;;;;;;;1.10;0.60;;;14.50;68.90;;;;;;5092395;28;20043;-72
2023/09/04 04:50:16;;;;;;;1.75;0.55;;;14.40;68.90;;;;;;5112088;28;20043;-72
2023/09/04 04:52:42;;;;;;;0.80;0.60;;;14.50;68.90;;;;;;5112296;28;20544;-72
2023/09/04 04:55:11;;;;;;;0.77;0.60;;;14.40;69.00;;;;;;5111112;28;20083;-72
2023/09/04 04:57:37;;;;;;;0.85;0.70;;;14.40;69.10;;;;;;5087503;28;20052;-72
2023/09/04 05:00:07;;;;;;;0.60;0.60;;;14.40;69.10;;;;;;5102133;28;20036;-72
2023/09/04 05:02:36;;;;;;;1.08;0.60;;;14.40;69.10;;;;;;5091856;28;20055;-72
2023/09/04 05:05:03;;;;;;;1.55;1.00;;;14.40;69.20;;;;;;5101498;28;20043;-72
2023/09/04 05:07:29;;;;;;;1.60;1.05;;;14.30;69.00;;;;;;5098707;28;20035;-72
2023/09/04 05:09:56;;;;;;;1.50;0.82;;;14.30;69.00;;;;;;5107964;28;20050;-72
2023/09/04 05:12:23;;;;;;;2.67;1.65;;;14.30;69.00;;;;;;5110944;28;20372;-72
2023/09/04 05:14:49;;;;;;;2.00;1.35;;;14.30;69.00;;;;;;5093973;28;20086;-72
2023/09/04 05:17:15;;;;;;;2.30;1.55;;;14.30;69.10;;;;;;5092153;28;20372;-72
2023/09/04 05:19:41;;;;;;;1.55;1.25;;;14.30;69.10;;;;;;5092322;28;20036;-72
2023/09/04 05:22:07;;;;;;;2.67;1.52;;;14.30;69.30;;;;;;5076137;28;20506;-72
2023/09/04 05:24:33;;;;;;;2.80;1.95;;;14.30;69.40;;;;;;5091770;28;20051;-72
2023/09/04 05:26:58;;;;;;;2.40;1.77;;;14.30;69.60;;;;;;5096212;28;20402;-72
2023/09/04 05:29:24;;;;;;;2.75;1.45;;;14.30;69.70;;;;;;5100064;28;20042;-72
2023/09/04 05:31:53;;;;;;;3.58;2.88;;;14.30;69.90;;;;;;5078208;28;20093;-72
2023/09/04 05:34:19;;;;;;;4.28;3.42;;;14.30;70.20;;;;;;5106305;28;20073;-72
2023/09/04 05:36:46;;;;;;;6.63;4.40;;;14.30;70.40;;;;;;5111878;28;20109;-72
2023/09/04 05:39:12;;;;;;;4.95;4.40;;;14.30;70.80;;;;;;5100494;28;20475;-72
2023/09/04 05:41:38;;;;;;;5.38;4.53;;;14.30;71.10;;;;;;5112007;28;20058;-72
2023/09/04 05:44:04;;;;;;;6.80;5.93;;;14.30;71.40;;;;;;5103734;28;20052;-72
2023/09/04 05:46:33;;;;;;;6.88;6.18;;;14.30;71.80;;;;;;5098931;28;20036;-72
2023/09/04 05:48:59;;;;;;;6.82;6.13;;;14.40;72.40;;;;;;5072482;28;20036;-72
2023/09/04 05:51:25;;;;;;;6.53;5.93;;;14.30;72.60;;;;;;5075662;28;20038;-72
2023/09/04 05:53:51;;;;;;;8.15;7.35;;;14.30;72.90;;;;;;5091803;28;20124;-72
2023/09/04 05:56:17;;;;;;;10.57;7.80;;;14.30;73.20;;;;;;5094081;28;20121;-72
2023/09/04 05:58:52;;;;;;;9.93;8.02;;;14.30;73.60;;;;;;5081480;28;20052;-72
2023/09/04 06:01:19;;;;;;;9.73;8.50;;;14.30;74.20;;;;;;5111133;28;20118;-72
2023/09/04 06:03:46;;;;;;;8.43;7.63;;;14.30;74.60;;;;;;5095327;28;20075;-72
2023/09/04 06:06:12;;;;;;;10.00;8.95;;;14.30;75.00;;;;;;5075175;28;20036;-72
2023/09/04 06:08:38;;;;;;;9.27;7.72;;;14.30;75.60;;;;;;5088378;28;20386;-72
2023/09/04 06:11:04;;;;;;;9.75;8.13;;;14.30;76.40;;;;;;5114931;28;20043;-71
2023/09/04 06:13:31;;;;;;;8.35;7.45;;;14.30;76.90;;;;;;5105332;28;20058;-72
2023/09/04 06:15:58;;;;;;;7.00;6.35;;;14.40;77.40;;;;;;5095283;28;20172;-72
2023/09/04 06:18:24;;;;;;;7.65;6.85;;;14.60;77.60;;;;;;5095109;28;20039;-72
2023/09/04 06:20:50;;;;;;;8.45;6.45;;;14.80;77.60;;;;;;5094454;28;20040;-72
2023/09/04 06:23:16;;;;;;;7.63;6.78;;;15.00;77.40;;;;;;5094917;28;20484;-72
2023/09/04 06:25:43;;;;;;;6.93;6.07;;;15.40;77.10;;;;;;5095327;28;20128;-72
2023/09/04 06:28:10;;;;;;;7.82;6.40;;;15.70;76.60;;;;;;5115464;28;20044;-72
2023/09/04 06:30:36;;;;;;;8.15;7.45;;;16.20;75.90;;;;;;5115338;28;20067;-72
2023/09/04 06:33:03;;;;;;;7.55;6.70;;;16.50;75.20;;;;;;5116376;28;20054;-72
2023/09/04 06:35:29;;;;;;;8.23;6.43;;;16.90;74.30;;;;;;5115265;28;20074;-72
2023/09/04 06:37:55;;;;;;;6.75;6.00;;;17.20;73.10;;;;;;5104224;28;20040;-72
2023/09/04 06:40:21;;;;;;;8.60;6.55;;;17.50;72.20;;;;;;5094580;28;20122;-72
2023/09/04 06:42:47;;;;;;;8.00;6.95;;;17.80;71.60;;;;;;5101696;28;20433;-72
2023/09/04 06:45:13;;;;;;;7.85;7.00;;;18.00;71.20;;;;;;5103312;28;20085;-72
2023/09/04 06:47:40;;;;;;;7.75;6.93;;;18.20;70.80;;;;;;5114701;28;20039;-72
2023/09/04 06:50:07;;;;;;;9.68;7.07;;;18.20;70.20;;;;;;5104433;28;20372;-73
2023/09/04 06:52:33;;;;;;;8.27;7.28;;;18.30;69.80;;;;;;5093954;28;20059;-73
2023/09/04 06:54:58;;;;;;;7.82;7.13;;;18.40;69.40;;;;;;5100051;28;20490;-73
2023/09/04 06:57:24;;;;;;;8.27;7.38;;;18.40;69.90;;;;;;5113030;28;20047;-75
2023/09/04 06:59:50;;;;;;;9.65;7.00;;;18.50;69.90;;;;;;5113143;28;20042;-72
2023/09/04 07:02:16;;;;;;;7.88;7.07;;;18.50;69.50;;;;;;5114850;28;20059;-72
2023/09/04 07:04:43;;;;;;;8.27;7.20;;;18.60;69.50;;;;;;5114412;28;20067;-72
2023/09/04 07:07:10;;;;;;;8.00;7.25;;;18.60;69.60;;;;;;5114280;28;20127;-72
2023/09/04 07:09:35;;;;;;;8.20;7.20;;;18.60;69.70;;;;;;5098874;28;20047;-72
2023/09/04 07:12:01;;;;;;;7.47;6.78;;;18.60;69.90;;;;;;5094415;28;20400;-72
2023/09/04 07:14:27;;;;;;;7.30;6.05;;;18.60;69.80;;;;;;5094768;28;20051;-73
2023/09/04 07:16:52;;;;;;;7.32;6.55;;;18.60;69.70;;;;;;5114750;28;20043;-72
2023/09/04 07:19:18;;;;;;;6.60;6.00;;;18.60;70.00;;;;;;5114471;28;20059;-72
2023/09/04 07:21:44;;;;;;;7.15;6.47;;;18.70;70.40;;;;;;5097472;28;20547;-72
2023/09/04 07:24:09;;;;;;;6.55;5.95;;;18.70;69.90;;;;;;5114367;28;20043;-72
2023/09/04 07:26:35;;;;;;;8.02;6.13;;;18.80;69.50;;;;;;5085110;28;20041;-72
2023/09/04 07:29:01;;;;;;;6.93;6.22;;;18.90;69.30;;;;;;5073556;28;20047;-72
2023/09/04 07:31:28;;;;;;;6.93;6.18;;;18.90;69.10;;;;;;5091549;28;20122;-72
2023/09/04 07:33:54;;;;;;;6.65;6.05;;;18.90;69.10;;;;;;5113805;28;20559;-73
2023/09/04 07:36:20;;;;;;;7.28;5.97;;;19.00;69.20;;;;;;5114065;28;20096;-73
2023/09/04 07:38:46;;;;;;;6.53;5.47;;;19.00;68.60;;;;;;5114160;28;20051;-73
2023/09/04 07:41:12;;;;;;;5.68;5.05;;;19.00;68.60;;;;;;5096986;28;20054;-73
2023/09/04 07:43:38;;;;;;;7.18;5.90;;;19.00;68.50;;;;;;5079853;28;20059;-73
2023/09/04 07:46:04;;;;;;;6.00;5.40;;;19.10;68.40;;;;;;5089772;28;20041;-73
2023/09/04 07:48:30;;;;;;;7.60;5.70;;;19.10;68.20;;;;;;5092360;28;20076;-73
2023/09/04 07:50:56;;;;;;;6.25;5.65;;;19.20;67.50;;;;;;5093695;28;20450;-73
2023/09/04 07:53:23;;;;;;;6.85;5.50;;;19.20;67.70;;;;;;5093737;28;20063;-73
2023/09/04 07:55:49;;;;;;;6.45;5.00;;;19.30;68.10;;;;;;5093047;28;20060;-73
2023/09/04 07:58:15;;;;;;;5.05;4.55;;;19.30;68.00;;;;;;5093010;28;20051;-73
2023/09/04 08:00:46;;;;;;;5.15;4.50;;;19.50;68.20;;;;;;5093116;28;20044;-73
2023/09/04 08:03:12;;;;;;;6.68;4.95;;;19.60;68.70;;;;;;5098912;28;20039;-73
2023/09/04 08:05:38;;;;;;;6.63;4.72;;;19.70;68.50;;;;;;5113452;28;20050;-71
2023/09/04 08:08:08;;;;;;;5.93;4.57;;;19.90;68.00;;;;;;5096742;28;20042;-72
2023/09/04 08:10:34;;;;;;;7.10;4.50;;;20.00;66.70;;;;;;5113732;28;20360;-72
2023/09/04 08:13:00;;;;;;;5.47;4.63;;;20.10;66.00;;;;;;5113415;28;20075;-72
2023/09/04 08:15:26;;;;;;;5.25;4.03;;;20.20;66.40;;;;;;5092116;28;20456;-72
2023/09/04 08:17:51;;;;;;;6.03;3.90;;;20.30;66.90;;;;;;5092115;28;20044;-72
2023/09/04 08:20:17;;;;;;;5.88;4.40;;;20.50;67.50;;;;;;5092666;28;20044;-72
2023/09/04 08:22:43;;;;;;;5.35;3.60;;;20.80;66.60;;;;;;5094388;28;20043;-72
2023/09/04 08:25:09;;;;;;;5.80;3.42;;;21.00;65.70;;;;;;5091789;28;20040;-72
2023/09/04 08:27:38;;;;;;;10.13;3.42;;;21.20;63.90;;;;;;5092730;28;20069;-72
2023/09/04 08:30:04;;;;;;;5.80;3.63;;;21.30;62.30;;;;;;5093009;28;20048;-72
2023/09/04 08:32:29;;;;;;;4.45;3.45;;;21.40;61.10;;;;;;5085408;28;20045;-73
2023/09/04 08:34:55;;;;;;;4.05;3.08;;;21.40;61.20;;;;;;5088057;28;20461;-73
2023/09/04 08:37:21;;;;;;;4.47;2.95;;;21.50;61.20;;;;;;5113065;28;20074;-73
2023/09/04 08:39:47;;;;;;;4.13;2.92;;;21.60;60.30;;;;;;5085390;28;20572;-73
2023/09/04 08:42:14;;;;;;;3.63;2.83;;;21.60;59.80;;;;;;5069727;28;20071;-72
2023/09/04 08:44:41;;;;;;;4.35;2.78;;;21.60;59.30;;;;;;5086871;28;20044;-72
2023/09/04 08:47:09;;;;;;;4.32;3.10;;;21.70;59.10;;;;;;5086389;28;20119;-72
2023/09/04 08:49:37;;;;;;;4.22;2.80;;;21.70;59.30;;;;;;5068980;28;20086;-72
2023/09/04 08:52:05;;;;;;;4.13;3.10;;;21.80;59.90;;;;;;5085714;28;20577;-72
2023/09/04 08:54:33;;;;;;;4.00;3.05;;;21.90;58.70;;;;;;5086868;28;21313;-72
2023/09/04 08:57:00;;;;;;;5.28;3.00;;;21.90;58.30;;;;;;5086730;28;20098;-72
2023/09/04 08:59:25;;;;;;;5.57;3.33;;;21.90;57.80;;;;;;5086654;28;20048;-72
2023/09/04 09:01:53;;;;;;;10.55;3.25;;;22.00;57.20;;;;;;5069973;28;20043;-72
2023/09/04 09:04:23;;;;;;;6.45;4.00;;;22.00;57.20;;;;;;5086483;28;20044;-72
2023/09/04 09:06:53;;;;;;;3.92;2.30;;;22.10;57.70;;;;;;5089549;28;20044;-72
2023/09/04 09:09:23;;;;;;;6.97;2.80;;;22.10;56.90;;;;;;5092161;28;20082;-72
2023/09/04 09:11:54;;;;;;;3.65;2.65;;;22.00;56.80;;;;;;5092220;28;20071;-72
2023/09/04 09:14:29;;;;;;;4.93;3.08;;;22.00;56.40;;;;;;5091968;28;20108;-72
2023/09/04 09:17:05;;;;;;;5.18;2.78;;;22.10;57.20;;;;;;5092044;28;20047;-73
2023/09/04 09:19:38;;;;;;;3.47;2.28;;;22.20;56.30;;;;;;5091894;28;20051;-73
2023/09/04 09:22:15;;;;;;;3.43;2.63;;;22.30;56.10;;;;;;5073612;28;20078;-72
2023/09/04 09:24:59;;;;;;;5.50;2.80;;;22.40;56.50;;;;;;5072789;28;20047;-72
2023/09/04 09:27:30;;;;;;;4.40;2.55;;;22.50;56.20;;;;;;5071570;28;20094;-72
2023/09/04 09:30:00;;;;;;;3.90;2.53;;;22.70;56.40;;;;;;5071880;28;20076;-72
2023/09/04 09:32:31;;;;;;;3.97;2.40;;;22.70;56.70;;;;;;5076241;28;20044;-72
2023/09/04 09:34:59;;;;;;;5.28;2.50;;;22.80;56.00;;;;;;5112114;28;20040;-72
2023/09/04 09:37:26;;;;;;;4.15;2.33;;;22.90;55.90;;;;;;5111891;28;20044;-73
2023/09/04 09:39:52;;;;;;;5.78;2.70;;;23.00;54.70;;;;;;5100551;28;20047;-72
2023/09/04 09:42:23;;;;;;;3.95;2.53;;;23.00;54.60;;;;;;5091475;28;20040;-72
2023/09/04 09:44:54;;;;;;;4.07;2.70;;;22.90;54.50;;;;;;5091520;28;20444;-72
2023/09/04 09:47:21;;;;;;;3.50;2.40;;;22.90;54.70;;;;;;5087399;28;20480;-72
2023/09/04 09:49:47;;;;;;;2.83;2.03;;;22.90;54.30;;;;;;5090763;28;20043;-72
2023/09/04 09:52:13;;;;;;;5.63;2.53;;;23.00;54.10;;;;;;5106816;28;20037;-72
2023/09/04 09:54:44;;;;;;;3.40;2.25;;;23.10;53.90;;;;;;5079450;28;20234;-72
2023/09/04 09:57:11;;;;;;;3.63;2.30;;;23.20;54.40;;;;;;5094893;28;20052;-72
2023/09/04 09:59:42;;;;;;;4.22;2.22;;;23.20;54.10;;;;;;5101514;28;20118;-72
2023/09/04 10:02:08;;;;;;;2.85;2.00;;;23.30;53.70;;;;;;5111416;28;20449;-72
2023/09/04 10:04:35;;;;;;;4.10;2.15;;;23.40;54.20;;;;;;5111578;28;20105;-72
2023/09/04 10:07:02;;;;;;;3.20;2.10;;;23.40;53.80;;;;;;5111545;28;20157;-72
2023/09/04 10:09:34;;;;;;;3.38;2.20;;;23.50;54.10;;;;;;5111793;28;20471;-72
2023/09/04 10:12:08;;;;;;;3.85;2.00;;;23.60;53.70;;;;;;5101487;28;20107;-72
2023/09/04 10:14:42;;;;;;;2.63;1.90;;;23.70;53.20;;;;;;5075598;28;20503;-72
2023/09/04 10:17:36;;;;;;;5.53;2.83;;;23.80;53.10;;;;;;5054411;28;20055;-72
2023/09/04 10:20:05;;;;;;;;;;;23.90;53.30;;;;;;5067496;28;20056;-72
2023/09/04 10:22:46;;;;;;;3.75;1.90;;;23.90;53.00;;;;;;5105109;28;19920;-72
2023/09/04 10:25:22;;;;;;;2.60;1.77;;;24.00;51.70;;;;;;5071032;28;20365;-72
2023/09/04 10:27:58;;;;;;;4.35;2.00;;;24.00;51.50;;;;;;5095959;28;20051;-72
2023/09/04 10:30:26;;;;;;;4.32;2.17;;;23.90;51.70;;;;;;5083549;28;20047;-72
2023/09/04 10:32:54;;;;;;;2.63;1.80;;;24.00;52.20;;;;;;5083984;28;20394;-72
2023/09/04 10:35:20;;;;;;;3.75;1.70;;;24.10;52.00;;;;;;5112788;28;20096;-72
2023/09/04 10:37:49;;;;;;;2.50;1.55;;;24.10;52.60;;;;;;5111588;28;20126;-72
2023/09/04 10:40:16;;;;;;;2.85;1.73;;;24.10;52.40;;;;;;5111715;28;20129;-72
2023/09/04 10:42:43;;;;;;;3.50;1.85;;;24.20;52.20;;;;;;5114985;28;20044;-72
2023/09/04 10:45:18;;;;;;;3.83;1.40;;;24.30;50.70;;;;;;5108973;28;20043;-74
2023/09/04 10:47:51;;;;;;;3.50;1.73;;;24.40;50.80;;;;;;5094258;28;20036;-74
2023/09/04 10:50:35;;;;;;;2.75;1.50;;;24.50;50.50;;;;;;5094597;28;20097;-74
2023/09/04 10:53:04;;;;;;;3.17;1.60;;;24.50;50.30;;;;;;5079051;28;20062;-74
2023/09/04 10:55:31;;;;;;;3.05;1.85;;;24.60;51.20;;;;;;5094552;28;20450;-74
2023/09/04 10:58:06;;;;;;;2.60;1.85;;;24.70;50.50;;;;;;5095524;28;20048;-74
2023/09/04 11:00:39;;;;;;;3.08;1.80;;;24.70;50.90;;;;;;5094279;28;20518;-74
2023/09/04 11:03:17;;;;;;;;;;;24.80;49.50;;;;;;5107491;28;20048;-74
2023/09/04 11:06:02;;;;;;;2.40;1.70;;;24.80;50.50;;;;;;5094876;28;19916;-74
2023/09/04 11:08:35;;;;;;;5.05;2.10;;;24.90;50.70;;;;;;5094379;28;20047;-73
2023/09/04 11:11:03;;;;;;;2.90;1.77;;;24.90;50.70;;;;;;5077125;28;20048;-73
2023/09/04 11:13:33;;;;;;;5.57;2.00;;;25.00;50.80;;;;;;5094275;28;20046;-74
2023/09/04 11:16:04;;;;;;;2.83;1.88;;;25.10;49.60;;;;;;5095458;28;20388;-74
2023/09/04 11:18:30;;;;;;;3.67;1.88;;;25.20;49.00;;;;;;5096598;28;20032;-74
2023/09/04 11:20:56;;;;;;;4.38;2.13;;;25.20;49.00;;;;;;5090931;28;20036;-74
2023/09/04 11:23:26;;;;;;;2.83;2.20;;;25.20;49.20;;;;;;5101504;28;20065;-74
2023/09/04 11:25:52;;;;;;;3.25;1.95;;;25.30;48.90;;;;;;5097518;28;20489;-74
2023/09/04 11:28:26;;;;;;;4.90;2.30;;;25.30;47.90;;;;;;5112714;28;20093;-74
2023/09/04 11:31:01;;;;;;;2.95;1.85;;;25.40;48.80;;;;;;5098200;28;20039;-74
2023/09/04 11:33:31;;;;;;;5.20;2.35;;;25.40;48.90;;;;;;5100415;28;20052;-74
2023/09/04 11:36:02;;;;;;;5.32;2.25;;;25.50;48.60;;;;;;5093728;28;20056;-74
2023/09/04 11:38:30;;;;;;;3.53;1.42;;;25.60;48.50;;;;;;5093046;28;20081;-74
2023/09/04 11:40:55;;;;;;;2.78;1.90;;;25.60;48.70;;;;;;5097104;28;20071;-74
2023/09/04 11:43:26;;;;;;;2.80;1.65;;;25.70;48.30;;;;;;5093408;28;20506;-73
2023/09/04 11:45:55;;;;;;;3.47;1.95;;;25.80;48.70;;;;;;5093613;28;20399;-73
2023/09/04 11:48:26;;;;;;;3.10;2.08;;;25.90;48.10;;;;;;5109689;28;20088;-75
2023/09/04 11:50:53;;;;;;;6.05;2.35;;;25.90;47.00;;;;;;5096300;28;20047;-75
2023/09/04 11:53:19;;;;;;;5.28;2.08;;;25.90;47.20;;;;;;5097611;28;20119;-75
2023/09/04 11:55:51;;;;;;;3.60;1.88;;;25.90;46.80;;;;;;5058378;28;20064;-75
2023/09/04 11:58:16;;;;;;;3.67;2.70;;;25.80;46.10;;;;;;5073145;28;20073;-75
2023/09/04 12:00:43;;;;;;;3.25;2.22;;;25.80;46.20;;;;;;5056475;28;20040;-75
2023/09/04 12:03:08;;;;;;;4.68;2.88;;;25.70;45.70;;;;;;5082926;28;20088;-76
2023/09/04 12:05:35;;;;;;;4.55;2.50;;;25.70;46.00;;;;;;5096618;28;20503;-75
2023/09/04 12:08:02;;;;;;;4.57;2.50;;;25.60;47.50;;;;;;5113600;28;20036;-75
2023/09/04 12:10:28;;;;;;;5.20;2.78;;;25.50;47.40;;;;;;5095130;28;20444;-75
2023/09/04 12:12:54;;;;;;;3.92;2.67;;;25.50;47.70;;;;;;5072859;28;20127;-75
2023/09/04 12:15:35;;;;;;;4.68;2.67;;;25.50;47.20;;;;;;5089919;28;20134;-75
2023/09/04 12:18:06;;;;;;;4.15;2.20;;;25.50;47.70;;;;;;5072640;28;20040;-75
2023/09/04 12:20:39;;;;;;;3.13;2.30;;;25.50;47.30;;;;;;5105818;28;20483;-75
2023/09/04 12:23:05;;;;;;;4.70;2.40;;;25.50;48.00;;;;;;5113430;28;20180;-74
2023/09/04 12:25:37;;;;;;;3.50;2.20;;;25.50;48.00;;;;;;5105613;28;20027;-72
2023/09/04 12:28:05;;;;;;;2.70;2.10;;;25.60;47.50;;;;;;5091741;28;20499;-72
2023/09/04 12:30:35;;;;;;;4.25;2.50;;;25.60;47.60;;;;;;5072661;28;20044;-72
2023/09/04 12:33:01;;;;;;;3.17;1.90;;;25.60;47.30;;;;;;5072545;28;20056;-72
2023/09/04 12:35:29;;;;;;;2.35;1.80;;;25.60;47.50;;;;;;5089572;28;20123;-72
2023/09/04 12:37:55;;;;;;;2.53;1.80;;;25.70;47.70;;;;;;5110667;28;20544;-73
2023/09/04 12:40:21;;;;;;;3.53;2.70;;;25.80;47.50;;;;;;5103622;28;20036;-73
2023/09/04 12:42:47;;;;;;;2.90;1.90;;;25.80;48.10;;;;;;5075570;28;20466;-73
2023/09/04 12:45:12;;;;;;;3.70;1.90;;;25.80;48.00;;;;;;5089132;28;20122;-73
2023/09/04 12:47:41;;;;;;;2.67;1.65;;;25.80;47.20;;;;;;5092828;28;20036;-73
2023/09/04 12:50:07;;;;;;;2.65;1.85;;;25.80;46.70;;;;;;5095458;28;20042;-74